KHSV

Huntsville International-Carl T Jones Field Airport

Huntsville, Alabama, USA
KHSV 212348Z 2200/2224 11007KT P6SM BKN250 FM220400 14010KT P6SM BKN250 FM220900 14010KT P6SM BKN250 WS020/16040KT FM221300 16013G23KT P6SM BKN250 FM221600 16013G23KT P6SM SCT025 BKN200 FM222000 16013G23KT P6SM BKN025 OVC040
Issued Valid From Valid To
Jan-21 @ 23:48 UTC
(29 minutes ago)
Jan-22 @ 00:00 UTC
(17 minutes ago)
Jan-23 @ 00:00 UTC
(in 24 hours)
Jan-22 @ 00:00 to Jan-22 @ 04:00
KHSV 212348Z 2200/2224 11007KT P6SM BKN250
Wind Visibility Clouds
110° at 7 knots Greater than 6 miles
  • Broken at 25,000' AGL
From Jan-22 @ 04:00 to Jan-22 @ 09:00
FM220400 14010KT P6SM BKN250
Wind Visibility Clouds
140° at 10 knots Greater than 6 miles
  • Broken at 25,000' AGL
From Jan-22 @ 09:00 to Jan-22 @ 13:00
FM220900 14010KT P6SM BKN250 WS020/16040KT
Wind Visibility Clouds
140° at 10 knots
 Wind shear 2,000' AGL from 160° at 40 knots
Greater than 6 miles
  • Broken at 25,000' AGL
From Jan-22 @ 13:00 to Jan-22 @ 16:00
FM221300 16013G23KT P6SM BKN250
Wind Visibility Clouds
160° at 13 knots
 Gusting to 23 knots
Greater than 6 miles
  • Broken at 25,000' AGL
From Jan-22 @ 16:00 to Jan-22 @ 20:00
FM221600 16013G23KT P6SM SCT025 BKN200
Wind Visibility Clouds
160° at 13 knots
 Gusting to 23 knots
Greater than 6 miles
  • Scattered at 2,500' AGL
  • Broken at 20,000' AGL
From Jan-22 @ 20:00 to Jan-23 @ 00:00
FM222000 16013G23KT P6SM BKN025 OVC040
Wind Visibility Clouds
160° at 13 knots
 Gusting to 23 knots
Greater than 6 miles
  • Broken at 2,500' AGL
  • Overcast at 4,000' AGL
KHSV 212348Z 2200/2224 11007KT P6SM BKN250 FM220400 14010KT P6SM BKN250 FM220900 14010KT P6SM BKN250 WS020/16040KT FM221300 16013G23KT P6SM BKN250 FM221600 16013G23KT P6SM SCT025 BKN200 FM222000 16013G23KT P6SM BKN025 OVC040
Issued Jan-21 @ 23:48 UTC
(29 minutes ago)
Valid From Jan-22 @ 00:00 UTC
(17 minutes ago)
Valid To Jan-23 @ 00:00 UTC
(in 24 hours)
Jan-22 @ 00:00 - Jan-22 @ 04:00
Wind Visibility
110° at 7 knots Greater than 6 miles
Clouds
  • Broken at 25,000' AGL
From Jan-22 @ 04:00 - Jan-22 @ 09:00
Wind Visibility
140° at 10 knots Greater than 6 miles
Clouds
  • Broken at 25,000' AGL
From Jan-22 @ 09:00 - Jan-22 @ 13:00
Wind Visibility
140° at 10 knots Greater than 6 miles
Clouds
  • Broken at 25,000' AGL
From Jan-22 @ 13:00 - Jan-22 @ 16:00
Wind Visibility
160° at 13 knots
 Gusting to 23 knots
Greater than 6 miles
Clouds
  • Broken at 25,000' AGL
From Jan-22 @ 16:00 - Jan-22 @ 20:00
Wind Visibility
160° at 13 knots
 Gusting to 23 knots
Greater than 6 miles
Clouds
  • Scattered at 2,500' AGL
  • Broken at 20,000' AGL
From Jan-22 @ 20:00 - Jan-23 @ 00:00
Wind Visibility
160° at 13 knots
 Gusting to 23 knots
Greater than 6 miles
Clouds
  • Broken at 2,500' AGL
  • Overcast at 4,000' AGL